Time;durP1;ratioP1;P1;durP2;ratioP2;P2;SDS_P1;SDS_P2;PMS_P1;PMS_P2;Temp;Humidity;BMP_temperature;BMP_pressure;BME280_temperature;BME280_humidity;BME280_pressure;Samples;Min_cycle;Max_cycle;Signal;HPM_P1;HPM_P2
2022/01/12 00:01:59;;;;;;;82.05;38.33;;;;;;;;;;5157086;27;20041;-81
2022/01/12 00:04:25;;;;;;;80.90;38.85;;;;;;;;;;5138263;27;20142;-81
2022/01/12 00:06:51;;;;;;;83.00;37.55;;;;;;;;;;5156618;27;20492;-81
2022/01/12 00:09:18;;;;;;;76.95;37.47;;;;;;;;;;5156617;27;20038;-81
2022/01/12 00:11:44;;;;;;;84.95;38.47;;;;;;;;;;5138047;27;20082;-81
2022/01/12 00:14:10;;;;;;;92.50;40.53;;;;;;;;;;5138276;27;20043;-81
2022/01/12 00:16:36;;;;;;;87.32;38.28;;;;;;;;;;5156558;27;20046;-81
2022/01/12 00:19:02;;;;;;;92.60;39.90;;;;;;;;;;5138382;27;20043;-81
2022/01/12 00:21:28;;;;;;;95.63;41.28;;;;;;;;;;5156331;27;20039;-81
2022/01/12 00:23:54;;;;;;;82.60;38.38;;;;;;;;;;5156580;27;20133;-81
2022/01/12 00:34:29;;;;;;;77.68;34.40;;;;;;;;;;5156131;27;20043;-81
2022/01/12 00:36:55;;;;;;;86.78;37.03;;;;;;;;;;5137778;27;20137;-81
2022/01/12 00:39:22;;;;;;;93.55;39.88;;;;;;;;;;5137735;27;20069;-81
2022/01/12 00:41:48;;;;;;;91.88;38.08;;;;;;;;;;5137988;27;20122;-81
2022/01/12 00:44:31;;;;;;;94.20;39.95;;;;;;;;;;5156019;27;20122;-81
2022/01/12 00:46:57;;;;;;;99.90;40.42;;;;;;;;;;5120350;27;20049;-82
2022/01/12 00:49:23;;;;;;;110.65;40.85;;;;;;;;;;5137589;27;20042;-81
2022/01/12 00:51:54;;;;;;;122.45;42.17;;;;;;;;;;5155775;27;20081;-81
2022/01/12 00:54:20;;;;;;;104.03;40.70;;;;;;;;;;5120575;27;20053;-81
2022/01/12 00:56:46;;;;;;;89.80;38.83;;;;;;;;;;5155904;27;20380;-81
2022/01/12 00:59:12;;;;;;;92.97;39.28;;;;;;;;;;5155509;27;20090;-81
2022/01/12 01:01:42;;;;;;;120.07;42.67;;;;;;;;;;5155242;27;20129;-81
2022/01/12 01:04:08;;;;;;;155.77;44.30;;;;;;;;;;5137303;27;20047;-80
2022/01/12 01:06:35;;;;;;;128.80;42.55;;;;;;;;;;5155529;27;20429;-81
2022/01/12 01:09:02;;;;;;;159.68;44.65;;;;;;;;;;5155692;27;20047;-81
2022/01/12 01:11:28;;;;;;;98.15;39.13;;;;;;;;;;5155551;27;20123;-81
2022/01/12 01:13:59;;;;;;;148.02;43.40;;;;;;;;;;5155356;27;20039;-81
2022/01/12 01:27:07;;;;;;;96.53;39.60;;;;;;;;;;5154897;27;20042;-81
2022/01/12 01:29:33;;;;;;;131.95;41.95;;;;;;;;;;5155526;27;20039;-81
2022/01/12 01:32:20;;;;;;;165.55;43.67;;;;;;;;;;5136797;27;20042;-81
2022/01/12 01:34:49;;;;;;;111.30;40.97;;;;;;;;;;5136737;27;20042;-81
2022/01/12 01:37:15;;;;;;;149.32;43.15;;;;;;;;;;5136511;27;20039;-81
2022/01/12 01:39:41;;;;;;;151.52;43.85;;;;;;;;;;5136611;27;20479;-81
2022/01/12 01:42:42;;;;;;;160.88;44.38;;;;;;;;;;5119609;27;20042;-82
2022/01/12 01:55:37;;;;;;;119.45;40.50;;;;;;;;;;5139238;27;20471;-82
2022/01/12 01:58:03;;;;;;;124.57;39.03;;;;;;;;;;5136153;27;20046;-81
2022/01/12 02:00:31;;;;;;;199.68;46.40;;;;;;;;;;5119143;27;20050;-81
2022/01/12 02:02:57;;;;;;;128.57;39.60;;;;;;;;;;5136028;27;20043;-81
2022/01/12 02:05:24;;;;;;;159.00;44.35;;;;;;;;;;5154543;27;20046;-81
2022/01/12 02:07:50;;;;;;;171.13;43.65;;;;;;;;;;5154454;27;20062;-81
2022/01/12 02:10:17;;;;;;;269.73;49.33;;;;;;;;;;5154313;27;20458;-81
2022/01/12 02:12:43;;;;;;;165.02;42.63;;;;;;;;;;5153491;27;20081;-81
2022/01/12 02:15:17;;;;;;;254.00;50.50;;;;;;;;;;5136136;27;20042;-82
2022/01/12 02:40:28;;;;;;;256.25;49.50;;;;;;;;;;5154284;27;20391;-82
2022/01/12 02:50:42;;;;;;;237.75;49.33;;;;;;;;;;5124362;27;20043;-82
2022/01/12 02:53:56;;;;;;;412.48;57.33;;;;;;;;;;5154059;27;20099;-81
2022/01/12 02:56:27;;;;;;;189.73;49.30;;;;;;;;;;5135290;27;20368;-81
2022/01/12 02:58:55;;;;;;;488.00;60.80;;;;;;;;;;5135798;27;20039;-81
2022/01/12 03:04:02;;;;;;;450.80;59.10;;;;;;;;;;5153715;27;20387;-82
2022/01/12 03:06:32;;;;;;;251.13;48.88;;;;;;;;;;5153878;27;20387;-82
2022/01/12 03:08:58;;;;;;;219.57;49.08;;;;;;;;;;5153602;27;20057;-81
2022/01/12 03:11:25;;;;;;;208.77;48.90;;;;;;;;;;5153649;27;20130;-81
2022/01/12 03:13:52;;;;;;;200.73;51.80;;;;;;;;;;5118704;27;20122;-82
2022/01/12 03:16:22;;;;;;;202.45;48.00;;;;;;;;;;5135527;27;20167;-82
2022/01/12 03:18:59;;;;;;;382.70;55.78;;;;;;;;;;5153597;27;20051;-81
2022/01/12 03:21:26;;;;;;;289.25;52.83;;;;;;;;;;5153562;27;20042;-81
2022/01/12 03:23:53;;;;;;;189.77;46.33;;;;;;;;;;5137300;27;20049;-81
2022/01/12 03:26:19;;;;;;;201.90;45.63;;;;;;;;;;5157553;27;20081;-81
2022/01/12 03:28:53;;;;;;;145.48;43.63;;;;;;;;;;5122092;27;20046;-81
2022/01/12 03:31:22;;;;;;;223.85;49.10;;;;;;;;;;5157528;27;20046;-81
2022/01/12 03:33:54;;;;;;;246.05;49.88;;;;;;;;;;5157468;27;20111;-81
2022/01/12 03:38:50;;;;;;;189.70;44.95;;;;;;;;;;5157297;27;20483;-81
2022/01/12 03:41:16;;;;;;;207.02;45.55;;;;;;;;;;5138900;27;20042;-80
2022/01/12 03:43:42;;;;;;;393.27;57.20;;;;;;;;;;5157354;27;20126;-81
2022/01/12 03:46:09;;;;;;;185.15;45.22;;;;;;;;;;5157005;27;20043;-80
2022/01/12 03:48:35;;;;;;;337.42;55.40;;;;;;;;;;5156910;27;20057;-80
2022/01/12 03:51:01;;;;;;;226.40;48.03;;;;;;;;;;5157536;27;20063;-81
2022/01/12 03:53:27;;;;;;;284.23;50.95;;;;;;;;;;5138583;27;20082;-81
2022/01/12 03:55:53;;;;;;;273.23;52.28;;;;;;;;;;5157176;27;20520;-80
2022/01/12 03:58:19;;;;;;;180.77;45.72;;;;;;;;;;5156987;27;20050;-81
2022/01/12 04:00:45;;;;;;;292.15;51.25;;;;;;;;;;5157213;27;20175;-80
2022/01/12 04:03:13;;;;;;;317.30;54.97;;;;;;;;;;5138512;27;20050;-80
2022/01/12 04:08:18;;;;;;;174.98;47.05;;;;;;;;;;5138446;27;20047;-80
2022/01/12 04:08:25;;;;;;;162.40;45.83;;;;;;;;;;5156763;27;20047;-81
2022/01/12 04:10:51;;;;;;;142.27;44.33;;;;;;;;;;5138505;27;20053;-81
2022/01/12 04:13:18;;;;;;;164.18;45.08;;;;;;;;;;5156696;27;20166;-81
2022/01/12 04:15:47;;;;;;;151.63;43.15;;;;;;;;;;5156490;27;20510;-80
2022/01/12 04:18:13;;;;;;;163.52;44.22;;;;;;;;;;5156709;27;20129;-80
2022/01/12 04:20:47;;;;;;;153.90;43.92;;;;;;;;;;5156499;27;20484;-81
2022/01/12 04:23:18;;;;;;;163.40;43.35;;;;;;;;;;5137974;27;20080;-81
2022/01/12 04:25:52;;;;;;;167.57;44.45;;;;;;;;;;5120816;27;20072;-81
2022/01/12 04:28:19;;;;;;;151.30;42.60;;;;;;;;;;5156181;27;20433;-81
2022/01/12 04:30:46;;;;;;;186.20;47.53;;;;;;;;;;5138144;27;20398;-81
2022/01/12 04:33:12;;;;;;;150.70;44.30;;;;;;;;;;5121156;27;20034;-82
2022/01/12 04:35:46;;;;;;;155.93;44.30;;;;;;;;;;5136838;27;20405;-81
2022/01/12 04:38:12;;;;;;;140.98;42.50;;;;;;;;;;5156192;27;20039;-81
2022/01/12 04:40:39;;;;;;;146.70;43.38;;;;;;;;;;5156554;27;20050;-81
2022/01/12 04:43:07;;;;;;;142.18;42.42;;;;;;;;;;5137042;27;20183;-81
2022/01/12 04:50:50;;;;;;;152.32;46.88;;;;;;;;;;5137559;27;20088;-81
2022/01/12 04:53:18;;;;;;;156.77;45.22;;;;;;;;;;5155941;27;20522;-81
2022/01/12 04:55:44;;;;;;;144.23;46.97;;;;;;;;;;5137611;27;20193;-81
2022/01/12 04:58:11;;;;;;;142.88;45.67;;;;;;;;;;5137333;27;20049;-81
2022/01/12 05:00:38;;;;;;;136.30;45.13;;;;;;;;;;5155728;27;20045;-81
2022/01/12 05:13:52;;;;;;;143.95;46.33;;;;;;;;;;5155383;27;20134;-81
2022/01/12 05:16:18;;;;;;;198.35;50.38;;;;;;;;;;5155409;27;20088;-81
2022/01/12 05:18:45;;;;;;;154.52;47.20;;;;;;;;;;5154915;27;20055;-81
2022/01/12 05:21:12;;;;;;;211.68;56.10;;;;;;;;;;5136986;27;20043;-80
2022/01/12 05:23:38;;;;;;;172.07;51.47;;;;;;;;;;5137233;27;20129;-81
2022/01/12 05:26:05;;;;;;;236.43;56.80;;;;;;;;;;5155261;27;20320;-81
2022/01/12 05:28:31;;;;;;;208.32;56.92;;;;;;;;;;5136354;27;20050;-81
2022/01/12 05:30:58;;;;;;;278.92;58.53;;;;;;;;;;5155223;27;20038;-82
2022/01/12 05:33:25;;;;;;;340.50;55.25;;;;;;;;;;5155242;27;20042;-81
2022/01/12 05:35:51;;;;;;;257.73;45.58;;;;;;;;;;5155076;27;20071;-81
2022/01/12 05:38:18;;;;;;;313.60;45.47;;;;;;;;;;5136934;27;20039;-80
2022/01/12 05:40:46;;;;;;;668.80;53.65;;;;;;;;;;5136564;27;20042;-81
2022/01/12 05:43:21;;;;;;;715.50;51.60;;;;;;;;;;5136360;27;20050;-81
2022/01/12 05:45:47;;;;;;;571.15;48.55;;;;;;;;;;5136385;27;20038;-82
2022/01/12 05:50:41;;;;;;;673.75;50.25;;;;;;;;;;5136582;27;20355;-81
2022/01/12 05:53:07;;;;;;;506.27;43.70;;;;;;;;;;5136204;27;20042;-81
2022/01/12 05:55:33;;;;;;;448.80;45.38;;;;;;;;;;5136543;27;20230;-81
2022/01/12 05:57:59;;;;;;;449.00;44.05;;;;;;;;;;5135929;27;20420;-81
2022/01/12 06:00:26;;;;;;;391.80;42.13;;;;;;;;;;5136622;27;20074;-82
2022/01/12 06:02:52;;;;;;;666.38;53.30;;;;;;;;;;5136072;27;20045;-81
2022/01/12 06:05:19;;;;;;;508.83;45.88;;;;;;;;;;5154449;27;20046;-81
2022/01/12 06:07:49;;;;;;;279.83;36.88;;;;;;;;;;5135885;27;20046;-82
2022/01/12 06:10:15;;;;;;;507.95;44.63;;;;;;;;;;5135785;27;20039;-81
2022/01/12 06:12:42;;;;;;;328.45;36.92;;;;;;;;;;5136131;27;20042;-81
2022/01/12 06:15:08;;;;;;;567.78;47.38;;;;;;;;;;5118738;27;20483;-82
2022/01/12 06:17:35;;;;;;;409.33;39.20;;;;;;;;;;5117097;27;20415;-82
2022/01/12 06:20:01;;;;;;;542.70;47.25;;;;;;;;;;5154400;27;20104;-82
2022/01/12 06:22:28;;;;;;;316.00;38.05;;;;;;;;;;5154455;27;20425;-81
2022/01/12 06:24:56;;;;;;;543.67;45.03;;;;;;;;;;5154070;27;20047;-82
2022/01/12 06:27:23;;;;;;;428.83;43.38;;;;;;;;;;5153926;27;20433;-81
2022/01/12 06:30:02;;;;;;;361.73;41.28;;;;;;;;;;5154256;27;20046;-81
2022/01/12 06:32:29;;;;;;;128.27;31.10;;;;;;;;;;5154233;27;20042;-82
2022/01/12 06:34:55;;;;;;;385.50;39.42;;;;;;;;;;5124285;28;20476;-82
2022/01/12 06:37:21;;;;;;;622.42;46.33;;;;;;;;;;5133370;28;20113;-80
2022/01/12 06:39:47;;;;;;;149.82;31.60;;;;;;;;;;5118034;28;20324;-81
2022/01/12 06:42:13;;;;;;;494.27;43.40;;;;;;;;;;5133318;28;20039;-81
2022/01/12 06:44:39;;;;;;;207.10;34.40;;;;;;;;;;5124057;27;20064;-81
2022/01/12 06:47:06;;;;;;;317.45;39.38;;;;;;;;;;5134927;27;20125;-80
2022/01/12 06:49:32;;;;;;;215.35;33.47;;;;;;;;;;5118331;27;20053;-81
2022/01/12 06:52:01;;;;;;;205.73;32.55;;;;;;;;;;5153814;27;20126;-81
2022/01/12 06:54:27;;;;;;;151.85;33.35;;;;;;;;;;5154018;27;20043;-81
2022/01/12 06:56:53;;;;;;;472.05;49.22;;;;;;;;;;5135567;27;20133;-81
2022/01/12 06:59:20;;;;;;;362.20;42.78;;;;;;;;;;5139075;27;20047;-81
2022/01/12 07:01:46;;;;;;;210.98;37.45;;;;;;;;;;5139579;27;20051;-81
2022/01/12 07:04:12;;;;;;;124.60;34.28;;;;;;;;;;5139468;27;20051;-81
2022/01/12 07:06:38;;;;;;;133.68;35.28;;;;;;;;;;5139649;27;20133;-81
2022/01/12 07:09:07;;;;;;;87.93;32.35;;;;;;;;;;5139620;27;20402;-81
2022/01/12 07:11:33;;;;;;;70.28;28.60;;;;;;;;;;5157832;27;20039;-81
2022/01/12 07:13:59;;;;;;;116.18;35.08;;;;;;;;;;5139575;27;20043;-80
2022/01/12 07:16:25;;;;;;;85.82;32.28;;;;;;;;;;5157685;27;20049;-81
2022/01/12 07:18:51;;;;;;;93.90;34.05;;;;;;;;;;5157915;27;20360;-81
2022/01/12 07:21:17;;;;;;;93.38;31.98;;;;;;;;;;5157509;27;20043;-81
2022/01/12 07:23:44;;;;;;;84.38;32.38;;;;;;;;;;5157534;27;20129;-81
2022/01/12 07:26:10;;;;;;;90.28;32.70;;;;;;;;;;5139024;27;20039;-82
2022/01/12 07:28:37;;;;;;;101.45;34.40;;;;;;;;;;5139071;27;20093;-82
2022/01/12 07:31:03;;;;;;;89.18;31.17;;;;;;;;;;5138963;27;20054;-82
2022/01/12 07:33:29;;;;;;;90.30;32.65;;;;;;;;;;5138769;27;20372;-81
2022/01/12 07:35:55;;;;;;;104.57;34.28;;;;;;;;;;5157015;27;20046;-82
2022/01/12 07:38:21;;;;;;;89.30;32.47;;;;;;;;;;5156865;27;20046;-81
2022/01/12 07:40:47;;;;;;;97.82;32.03;;;;;;;;;;5137966;27;20046;-81
2022/01/12 07:43:13;;;;;;;106.80;33.65;;;;;;;;;;5138566;27;20536;-81
2022/01/12 07:45:39;;;;;;;133.38;36.10;;;;;;;;;;5157346;27;20097;-81
2022/01/12 07:48:05;;;;;;;111.50;34.15;;;;;;;;;;5156711;27;20046;-81
2022/01/12 07:50:32;;;;;;;118.15;34.17;;;;;;;;;;5138488;27;20120;-81
2022/01/12 07:52:58;;;;;;;111.90;33.97;;;;;;;;;;5138351;27;20047;-81
2022/01/12 07:55:24;;;;;;;119.97;33.83;;;;;;;;;;5157401;27;20053;-81
2022/01/12 07:57:51;;;;;;;137.57;35.30;;;;;;;;;;5156730;27;20125;-81
2022/01/12 08:00:17;;;;;;;163.98;35.85;;;;;;;;;;5121360;27;20042;-81
2022/01/12 08:02:43;;;;;;;135.05;35.45;;;;;;;;;;5156744;27;20421;-81
2022/01/12 08:05:10;;;;;;;103.40;31.52;;;;;;;;;;5138642;27;20042;-81
2022/01/12 08:07:38;;;;;;;115.30;33.97;;;;;;;;;;5156822;27;20089;-81
2022/01/12 08:10:05;;;;;;;135.73;34.00;;;;;;;;;;5155350;27;20043;-81
2022/01/12 08:12:31;;;;;;;123.47;33.55;;;;;;;;;;5157125;27;20130;-77
2022/01/12 08:14:57;;;;;;;113.57;33.05;;;;;;;;;;5139151;27;20361;-80
2022/01/12 08:17:23;;;;;;;157.23;36.28;;;;;;;;;;5137969;27;20042;-81
2022/01/12 08:19:51;;;;;;;104.85;31.25;;;;;;;;;;5134356;27;20086;-81
2022/01/12 08:22:17;;;;;;;110.80;33.17;;;;;;;;;;5135761;27;20062;-81
2022/01/12 08:24:43;;;;;;;99.20;32.15;;;;;;;;;;5134621;27;20127;-81
2022/01/12 08:27:09;;;;;;;139.13;36.92;;;;;;;;;;5135669;27;20039;-81
2022/01/12 08:29:35;;;;;;;118.00;34.33;;;;;;;;;;5117733;27;20051;-81
2022/01/12 08:32:01;;;;;;;128.07;35.13;;;;;;;;;;5135574;27;20043;-82
2022/01/12 08:34:28;;;;;;;109.18;32.35;;;;;;;;;;5135378;27;20496;-81
2022/01/12 08:36:54;;;;;;;121.20;33.85;;;;;;;;;;5135415;27;20088;-81
2022/01/12 08:39:20;;;;;;;100.93;29.67;;;;;;;;;;5135626;27;20035;-83
2022/01/12 08:41:46;;;;;;;114.38;30.98;;;;;;;;;;5134371;27;20133;-81
2022/01/12 08:44:12;;;;;;;106.53;30.13;;;;;;;;;;5135483;27;20042;-81
2022/01/12 08:46:39;;;;;;;113.93;30.15;;;;;;;;;;5116979;27;20071;-81
2022/01/12 08:49:05;;;;;;;152.38;31.75;;;;;;;;;;5135245;27;20053;-81
2022/01/12 08:51:31;;;;;;;191.55;33.35;;;;;;;;;;5134940;27;20468;-82
2022/01/12 08:53:58;;;;;;;569.40;46.20;;;;;;;;;;5134551;27;20126;-81
2022/01/12 08:56:24;;;;;;;529.40;38.72;;;;;;;;;;5133457;27;20046;-82
2022/01/12 08:58:50;;;;;;;766.63;46.88;;;;;;;;;;5133314;27;20042;-82
2022/01/12 09:01:17;;;;;;;748.85;50.35;;;;;;;;;;5135061;27;20078;-81
2022/01/12 09:03:43;;;;;;;391.83;32.80;;;;;;;;;;5134873;27;20118;-81
2022/01/12 09:06:09;;;;;;;352.05;32.78;;;;;;;;;;5134899;27;20047;-82
2022/01/12 09:08:38;;;;;;;278.33;27.38;;;;;;;;;;5134820;27;20078;-82
2022/01/12 09:11:04;;;;;;;501.98;37.97;;;;;;;;;;5133642;27;20074;-81
2022/01/12 09:13:31;;;;;;;170.73;26.02;;;;;;;;;;5134750;27;20082;-81
2022/01/12 09:15:57;;;;;;;195.77;30.55;;;;;;;;;;5134521;27;20047;-82
2022/01/12 09:18:23;;;;;;;91.65;26.75;;;;;;;;;;5141247;27;20057;-82
2022/01/12 09:20:49;;;;;;;135.77;29.17;;;;;;;;;;5154835;27;20480;-81
2022/01/12 09:23:16;;;;;;;157.25;29.75;;;;;;;;;;5155227;27;20519;-82
2022/01/12 09:25:42;;;;;;;92.45;26.60;;;;;;;;;;5155197;27;20046;-82
2022/01/12 09:28:09;;;;;;;100.95;26.88;;;;;;;;;;5136547;27;20081;-81
2022/01/12 09:30:36;;;;;;;120.22;28.45;;;;;;;;;;5155368;27;20091;-82
2022/01/12 09:33:02;;;;;;;165.93;29.42;;;;;;;;;;5119856;27;20046;-82
2022/01/12 09:35:29;;;;;;;203.68;30.02;;;;;;;;;;5119935;27;20081;-82
2022/01/12 09:37:55;;;;;;;124.05;24.58;;;;;;;;;;5119924;27;20452;-82
2022/01/12 09:40:21;;;;;;;112.38;24.02;;;;;;;;;;5155112;27;20045;-83
2022/01/12 09:42:48;;;;;;;144.13;24.00;;;;;;;;;;5136329;27;20046;-82
2022/01/12 09:45:17;;;;;;;169.07;23.70;;;;;;;;;;5136729;27;20045;-82
2022/01/12 09:47:47;;;;;;;184.48;25.02;;;;;;;;;;5136348;27;20046;-81
2022/01/12 09:50:14;;;;;;;163.77;21.65;;;;;;;;;;5154879;27;20047;-82
2022/01/12 09:52:40;;;;;;;199.65;23.92;;;;;;;;;;5136581;27;20102;-82
2022/01/12 09:55:06;;;;;;;260.33;24.80;;;;;;;;;;5136233;27;20480;-82
2022/01/12 09:57:32;;;;;;;154.02;21.58;;;;;;;;;;5154535;27;20386;-81
2022/01/12 09:59:59;;;;;;;149.82;21.63;;;;;;;;;;5154560;27;20042;-82
2022/01/12 10:02:25;;;;;;;112.22;19.35;;;;;;;;;;5154810;27;20121;-81
2022/01/12 10:05:03;;;;;;;128.10;20.45;;;;;;;;;;5154809;27;20057;-81
2022/01/12 10:07:29;;;;;;;71.22;19.10;;;;;;;;;;5136254;27;20049;-80
2022/01/12 10:09:56;;;;;;;78.07;18.27;;;;;;;;;;5154579;27;20050;-82
2022/01/12 10:12:24;;;;;;;131.77;20.33;;;;;;;;;;5154705;27;20083;-82
2022/01/12 10:15:00;;;;;;;103.30;20.40;;;;;;;;;;5136417;27;20046;-82
2022/01/12 10:17:35;;;;;;;85.18;18.63;;;;;;;;;;5154424;27;20053;-82
2022/01/12 10:20:10;;;;;;;114.07;20.30;;;;;;;;;;5135551;27;20551;-82
2022/01/12 10:22:37;;;;;;;76.95;17.08;;;;;;;;;;5135934;27;20043;-82
2022/01/12 10:25:14;;;;;;;84.40;18.05;;;;;;;;;;5154359;27;20053;-84
2022/01/12 10:27:40;;;;;;;70.60;16.85;;;;;;;;;;5154066;27;20135;-83
2022/01/12 10:30:07;;;;;;;81.93;16.13;;;;;;;;;;5153896;27;20042;-81
2022/01/12 10:32:33;;;;;;;73.72;16.13;;;;;;;;;;5134967;27;20038;-82
2022/01/12 10:35:00;;;;;;;68.68;15.10;;;;;;;;;;5135549;27;20125;-81
2022/01/12 10:37:26;;;;;;;73.05;14.57;;;;;;;;;;5154335;27;20400;-82
2022/01/12 10:39:53;;;;;;;60.05;12.93;;;;;;;;;;5118625;27;20046;-82
2022/01/12 10:42:20;;;;;;;59.72;13.30;;;;;;;;;;5135994;27;20452;-82
2022/01/12 10:44:51;;;;;;;64.80;12.13;;;;;;;;;;5135890;27;20086;-82
2022/01/12 10:47:17;;;;;;;56.92;12.45;;;;;;;;;;5153913;27;20126;-81
2022/01/12 10:49:47;;;;;;;67.68;12.80;;;;;;;;;;5154352;27;20053;-81
2022/01/12 10:52:14;;;;;;;51.95;11.75;;;;;;;;;;5154018;27;20121;-82
2022/01/12 10:54:44;;;;;;;65.97;12.95;;;;;;;;;;5135807;27;20071;-82
2022/01/12 10:57:22;;;;;;;59.00;12.82;;;;;;;;;;5154021;27;20141;-83
2022/01/12 11:00:01;;;;;;;65.60;13.23;;;;;;;;;;5135268;27;20053;-82
2022/01/12 11:02:30;;;;;;;42.10;11.95;;;;;;;;;;5154106;27;20047;-82
2022/01/12 11:04:57;;;;;;;70.88;15.05;;;;;;;;;;5154105;27;20038;-82
2022/01/12 11:07:27;;;;;;;63.45;13.60;;;;;;;;;;5135542;27;20047;-82
2022/01/12 11:10:00;;;;;;;51.10;12.77;;;;;;;;;;5135182;27;20494;-82
2022/01/12 11:12:27;;;;;;;65.13;14.65;;;;;;;;;;5135476;27;20087;-82
2022/01/12 11:14:53;;;;;;;79.50;15.30;;;;;;;;;;5135362;27;20129;-81
2022/01/12 11:17:20;;;;;;;56.40;13.60;;;;;;;;;;5153943;27;20074;-82
2022/01/12 11:20:04;;;;;;;53.83;13.18;;;;;;;;;;5153449;27;20055;-82
2022/01/12 11:22:49;;;;;;;58.15;13.35;;;;;;;;;;5153773;27;20082;-82
2022/01/12 11:25:23;;;;;;;58.20;12.57;;;;;;;;;;5153904;27;20039;-82
2022/01/12 11:27:51;;;;;;;64.38;11.20;;;;;;;;;;5153655;27;20046;-82
2022/01/12 11:30:21;;;;;;;68.28;10.98;;;;;;;;;;5153844;27;20485;-82
2022/01/12 11:33:02;;;;;;;42.28;10.13;;;;;;;;;;5153470;27;20035;-81
2022/01/12 11:35:29;;;;;;;46.28;10.32;;;;;;;;;;5134900;27;20365;-80
2022/01/12 11:37:59;;;;;;;42.65;10.23;;;;;;;;;;5153785;27;20391;-81
2022/01/12 11:40:52;;;;;;;56.90;9.98;;;;;;;;;;5153590;27;20046;-81
2022/01/12 11:43:20;;;;;;;49.25;10.30;;;;;;;;;;5131729;27;20051;-82
2022/01/12 11:45:47;;;;;;;42.85;10.20;;;;;;;;;;5121631;27;20093;-82
2022/01/12 11:48:13;;;;;;;34.65;9.48;;;;;;;;;;5157195;27;20034;-82
2022/01/12 11:50:39;;;;;;;40.08;9.05;;;;;;;;;;5155352;27;20035;-80
2022/01/12 11:53:06;;;;;;;42.53;9.90;;;;;;;;;;5138795;27;20039;-82
2022/01/12 11:55:34;;;;;;;54.00;11.82;;;;;;;;;;5138826;27;20046;-82
2022/01/12 11:58:03;;;;;;;47.55;11.30;;;;;;;;;;5138761;27;20068;-82
2022/01/12 12:00:31;;;;;;;59.28;13.38;;;;;;;;;;5156851;27;20042;-82
2022/01/12 12:02:58;;;;;;;59.15;15.85;;;;;;;;;;5156809;27;20126;-81
2022/01/12 12:05:29;;;;;;;52.33;12.65;;;;;;;;;;5138765;27;20050;-81
2022/01/12 12:08:04;;;;;;;47.83;11.95;;;;;;;;;;5156619;27;20047;-81
2022/01/12 12:10:34;;;;;;;57.08;12.40;;;;;;;;;;5156575;27;20627;-82
2022/01/12 12:13:00;;;;;;;47.65;11.43;;;;;;;;;;5156607;27;20047;-80
2022/01/12 12:15:27;;;;;;;35.30;10.40;;;;;;;;;;5156763;27;20039;-82
2022/01/12 12:17:54;;;;;;;36.13;9.63;;;;;;;;;;5156523;27;20043;-81
2022/01/12 12:20:22;;;;;;;30.77;10.02;;;;;;;;;;5156505;27;20046;-83
2022/01/12 12:22:48;;;;;;;33.30;9.73;;;;;;;;;;5156493;27;20042;-82
2022/01/12 12:25:16;;;;;;;38.03;9.48;;;;;;;;;;5156224;27;20122;-82
2022/01/12 12:27:44;;;;;;;38.13;10.15;;;;;;;;;;5137803;27;20042;-82
2022/01/12 12:30:12;;;;;;;38.95;10.23;;;;;;;;;;5137880;27;20126;-82
2022/01/12 12:32:42;;;;;;;29.00;9.38;;;;;;;;;;5156452;27;20487;-82
2022/01/12 12:35:11;;;;;;;34.07;10.33;;;;;;;;;;5138074;27;20052;-82
2022/01/12 12:37:39;;;;;;;33.58;9.52;;;;;;;;;;5137637;27;20087;-80
2022/01/12 12:40:14;;;;;;;35.13;9.68;;;;;;;;;;5156207;27;20043;-83
2022/01/12 12:42:40;;;;;;;35.65;9.88;;;;;;;;;;5137828;27;20046;-82
2022/01/12 12:45:08;;;;;;;38.38;10.43;;;;;;;;;;5137712;27;20046;-82
2022/01/12 12:47:34;;;;;;;38.33;11.07;;;;;;;;;;5155909;27;20122;-81
2022/01/12 12:50:02;;;;;;;38.55;11.85;;;;;;;;;;5155963;27;20039;-82
2022/01/12 12:52:35;;;;;;;33.15;10.52;;;;;;;;;;5137380;27;20049;-81
2022/01/12 12:55:06;;;;;;;34.67;10.50;;;;;;;;;;5155568;27;20383;-82
2022/01/12 12:57:32;;;;;;;33.80;10.75;;;;;;;;;;5155593;27;20475;-81
2022/01/12 13:00:07;;;;;;;28.23;10.25;;;;;;;;;;5137507;27;20611;-83
2022/01/12 13:02:37;;;;;;;36.03;10.90;;;;;;;;;;5155467;27;20406;-82
2022/01/12 13:05:07;;;;;;;32.78;11.13;;;;;;;;;;5136917;27;20048;-82
2022/01/12 13:07:37;;;;;;;26.30;10.43;;;;;;;;;;5155614;27;20082;-82
2022/01/12 13:10:04;;;;;;;32.58;10.30;;;;;;;;;;5156007;27;20043;-81
2022/01/12 13:12:37;;;;;;;29.20;9.85;;;;;;;;;;5155595;27;20051;-82
2022/01/12 13:15:04;;;;;;;23.13;9.07;;;;;;;;;;5137099;27;20150;-81
2022/01/12 13:17:30;;;;;;;25.55;8.90;;;;;;;;;;5119850;27;20081;-82
2022/01/12 13:22:23;;;;;;;29.92;12.27;;;;;;;;;;5155141;27;20133;-81
2022/01/12 13:24:49;;;;;;;67.55;35.85;;;;;;;;;;5155300;27;20041;-81
2022/01/12 13:27:15;;;;;;;36.92;14.80;;;;;;;;;;5154993;27;20039;-81
2022/01/12 13:29:51;;;;;;;50.63;22.48;;;;;;;;;;5155148;27;20038;-82
2022/01/12 13:32:17;;;;;;;45.13;22.42;;;;;;;;;;5136842;27;20093;-81
2022/01/12 13:34:54;;;;;;;50.20;24.17;;;;;;;;;;5155173;27;20364;-82
2022/01/12 13:37:20;;;;;;;49.30;24.90;;;;;;;;;;5136929;27;20043;-82
2022/01/12 13:39:48;;;;;;;43.38;19.50;;;;;;;;;;5136407;27;20042;-82
2022/01/12 13:42:14;;;;;;;37.22;19.55;;;;;;;;;;5154933;27;20425;-81
2022/01/12 13:44:40;;;;;;;67.68;35.95;;;;;;;;;;5136368;27;20049;-82
2022/01/12 13:49:33;;;;;;;104.72;66.15;;;;;;;;;;5136537;27;20511;-82
2022/01/12 13:52:06;;;;;;;190.00;140.50;;;;;;;;;;5136222;27;20487;-82
2022/01/12 13:54:37;;;;;;;66.75;38.33;;;;;;;;;;5154687;27;20387;-83
2022/01/12 13:57:04;;;;;;;45.83;22.02;;;;;;;;;;5154565;27;20078;-82
2022/01/12 13:59:32;;;;;;;50.15;24.33;;;;;;;;;;5155049;27;20497;-82
2022/01/12 14:01:58;;;;;;;39.25;16.13;;;;;;;;;;5154538;27;20077;-81
2022/01/12 14:04:39;;;;;;;48.30;16.33;;;;;;;;;;5154780;27;20503;-81
2022/01/12 14:07:08;;;;;;;43.42;14.35;;;;;;;;;;5154550;27;20046;-82
2022/01/12 14:09:38;;;;;;;41.88;15.57;;;;;;;;;;5136182;27;20085;-82
2022/01/12 14:12:24;;;;;;;41.65;16.05;;;;;;;;;;5118964;27;20046;-82
2022/01/12 14:14:53;;;;;;;37.33;13.82;;;;;;;;;;5133218;27;20137;-74
2022/01/12 14:17:30;;;;;;;37.08;13.38;;;;;;;;;;5133575;27;20045;-81
2022/01/12 14:19:58;;;;;;;40.20;13.18;;;;;;;;;;5133378;27;20050;-82
2022/01/12 14:22:25;;;;;;;33.83;12.25;;;;;;;;;;5115522;27;20083;-81
2022/01/12 14:24:58;;;;;;;40.95;14.25;;;;;;;;;;5133638;27;20035;-82
2022/01/12 14:27:24;;;;;;;37.40;13.23;;;;;;;;;;5098230;28;20042;-81
2022/01/12 14:29:51;;;;;;;38.95;14.45;;;;;;;;;;5133634;27;20047;-82
2022/01/12 14:32:17;;;;;;;34.25;14.23;;;;;;;;;;5133447;28;20043;-82
2022/01/12 14:34:43;;;;;;;39.53;14.80;;;;;;;;;;5133426;28;20325;-81
2022/01/12 14:37:09;;;;;;;36.95;14.75;;;;;;;;;;5114886;28;20050;-81
2022/01/12 14:39:36;;;;;;;46.83;20.88;;;;;;;;;;5133537;28;20527;-81
2022/01/12 14:42:02;;;;;;;42.60;17.17;;;;;;;;;;5115116;28;20078;-81
2022/01/12 14:44:33;;;;;;;36.53;15.13;;;;;;;;;;5114711;28;20050;-81
2022/01/12 14:47:00;;;;;;;39.85;15.98;;;;;;;;;;5132965;28;20043;-82
2022/01/12 14:49:26;;;;;;;37.25;16.27;;;;;;;;;;5115195;28;20035;-81
2022/01/12 14:51:52;;;;;;;37.58;16.45;;;;;;;;;;5133487;28;20043;-82
2022/01/12 14:54:18;;;;;;;42.80;16.90;;;;;;;;;;5114790;28;20031;-82
2022/01/12 14:56:44;;;;;;;32.53;13.75;;;;;;;;;;5133383;28;20043;-81
2022/01/12 14:59:10;;;;;;;44.15;23.65;;;;;;;;;;5133198;28;20129;-82
2022/01/12 15:01:37;;;;;;;168.45;102.43;;;;;;;;;;5097942;28;20043;-82
2022/01/12 15:04:03;;;;;;;34.53;15.98;;;;;;;;;;5133495;28;20050;-81
2022/01/12 15:06:29;;;;;;;34.00;14.68;;;;;;;;;;5133065;28;20527;-81
2022/01/12 15:08:55;;;;;;;31.70;15.48;;;;;;;;;;5133332;28;20151;-81
2022/01/12 15:11:21;;;;;;;39.75;20.55;;;;;;;;;;5133148;28;20458;-82
2022/01/12 15:13:59;;;;;;;36.15;16.52;;;;;;;;;;5115162;28;20035;-81
2022/01/12 15:16:25;;;;;;;30.30;14.60;;;;;;;;;;5114925;28;20375;-81
2022/01/12 15:18:52;;;;;;;32.00;14.48;;;;;;;;;;5133714;27;20152;-81
2022/01/12 15:21:18;;;;;;;32.83;15.15;;;;;;;;;;5118857;27;20057;-81
2022/01/12 15:23:44;;;;;;;33.80;16.08;;;;;;;;;;5136904;27;20043;-81
2022/01/12 15:26:10;;;;;;;33.13;14.50;;;;;;;;;;5137036;27;20039;-81
2022/01/12 15:28:37;;;;;;;32.47;14.00;;;;;;;;;;5118010;27;20488;-82
2022/01/12 15:31:03;;;;;;;31.90;14.60;;;;;;;;;;5118659;27;20046;-81
2022/01/12 15:33:29;;;;;;;32.10;14.82;;;;;;;;;;5118447;27;20054;-82
2022/01/12 15:35:55;;;;;;;37.30;14.75;;;;;;;;;;5118768;27;20115;-81
2022/01/12 15:38:21;;;;;;;33.50;16.27;;;;;;;;;;5136692;27;20095;-81
2022/01/12 15:40:47;;;;;;;33.22;16.15;;;;;;;;;;5136702;27;20088;-82
2022/01/12 15:43:14;;;;;;;32.97;15.80;;;;;;;;;;5136472;27;20499;-82
2022/01/12 15:45:40;;;;;;;38.22;16.00;;;;;;;;;;5118678;27;20047;-82